Bismarck, ND (58501)

5:55 AM CDT on July 29, 2016 (GMT -0500)
NDDOT | | Change Station

Elev 1961 ft 46.82 °N, 100.83 °W | Updated 9 days ago

Partly Cloudy
Partly Cloudy
62 °F
Feels Like 62 °F
N
3
Wind Variable Wind from ENE
Gusts mph

Today
High -- | Low -- °F
--% Chance of Precip.
Yesterday
High -- | Low -- °F
Precip. -- in
Pressure 30.08 in
Visibility 10.0 miles
Clouds Overcast 8500 ft
Dew Point 59 °F
Humidity 89%
Rainfall in
Snow Depth Not available.
6:20 AM 9:18 PM
Waning Crescent, 23% visible
METAR KBIS 291052Z AUTO 00000KT 10SM OVC085 17/16 A3009 RMK AO2 SLP186 T01720161
Pressure 30.08 in
Visibility 10.0 miles
Clouds Overcast 8500 ft
Dew Point 59 °F
Humidity 89%
Rainfall in
Snow Depth Not available.
6:20 AM 9:18 PM
Waning Crescent, 23% visible
METAR KBIS 291052Z AUTO 00000KT 10SM OVC085 17/16 A3009 RMK AO2 SLP186 T01720161

10-Day Weather Forecast

Almanac

Astronomy

Jul. 29, 2016 Rise Set
Actual Time
Civil Twilight
Nautical Twilight
Astronomical Twilight
Moon
Length of Visible Light
Length of Day
Tomorrow will be .
, % of the Moon is Illuminated

Today's Extremes

State Highs State Lows

Community

WunderPhotos

Upload Photos

1,928,311 photos uploaded!

WunderBlog® & News

Nearby

Air Quality

  Air Quality AQ Index Pollutant
Not available.

Snow Depth

Station Depth Elevation

Earthquake Activity

City Distance Mag. Time & Date
Minimum magnitude displayed is 2.5.

Coastal Water Temperatures

Place Temperature

Stations

Nearby Weather Stations

Station Location Temp. Windchill Dew Point Humidity Wind Precip. Elev Updated Type
                   

Watches & Warnings

There are currently no watches in effect.